Ana Sayfa
METAR-TAF:

METAR-TAF

Havaalanları :

Butler, Pensilvanya, Amerika Birleşik Devletleri

Enlem: 40-47N, Boylam: 079-57W, yükseklik: 380 m

Güncel hava durumu gözlemi

Rapor saat 06:56 UTC de 15 dakika önce yapıldı.
Sakin rüzgar
Sıcaklık 8°C
Nem 53%
Basınç 1009 hPa
Görüş mesafesi: 16.1 km
4900 ft yükseklikte çok bulutlu

METAR: KBTP 250656Z AUTO 00000KT 10SM OVC049 08/M01 A2980 RMK AO2 RAE47 SLP100 P0000 T00781011

Saat: 02:11 (07:11 UTC)


TAF: eksik

4.000'den fazla havaalanı için hava durumu gözlemleri ve tahminleri (METAR ve TAF raporları).

Kullanılabilir istasyonlar harita üzerinde sarı ve kırmızı noktalarla gösterilir.

İstasyonun adını görmek için fareyi noktanın üzerinde gezdirin.

Sonrasında hava gözlem ve tahminlerini görmek için tıklayın.

Haritayı değiştirmek için: yaklaştırmak için siyah artı işaretli yeşil düğmeye ve uzaklaştırmak için de eksi işaretli düğmeye hızla tıklayın; bitişik haritalar için yeşil okları kullanın.


METAR-TAF: